Historyczne dane pomiarowe

Dodano dane terminowe – wersja testowa.

Dane z okresu 1951-2019

Wersja bazy: 1.34 [2019-03-16, lista zmian], aktualizacja planowana na 2019-04-15

Dane meteo z obszaru Polski uzyskane na podstawie danych udostępnionych przez Instytut Meteorologii i Gospodarki Wodnej – Państwowy Instytut Badawczy.

 

Wybierz Datę:    

       

TemperaturaWilgotnośćWiatrCiśnienieOpadyŚniegCzas trwania zjawisk
 Stacja t tx tn tng RH VA  wxwx mslp ppp RRR   cm mm wxwxwxwxwxwxwx
1974-01-14 1.1 2.4 0.4 -2.6 73.3- 4.0 11.3---- 0.0------------
1974-01-15 2.6 4.1 0.9 -0.5 78.8- 7.7 8.7---- 6.3------------
1974-01-16 4.2 6.9 3.1 0.4 83.5- 5.0 7.3---- 4.2------------
1974-01-17 5.5 7.7 2.9 1.5 78.3- 5.7 11.7---- 4.5------------
1974-01-18 2.9 4.5 1.4 -0.1 84.0- 6.7 3.7---- 5.5------------
1974-01-19 7.2 9.1 2.5 2.0 87.0- 8.0 10.7---- 6.5------------
1974-01-20 6.8 8.6 5.9 5.4 87.3- 8.0 13.7---- 1.2------------
1974-01-21 4.4 6.0 2.2 -2.4 84.3- 5.3 2.7---- 0.0------------
1974-01-22 -0.3 2.2 -2.1 -5.6 95.0- 8.0 1.3---- 0.5------------
1974-01-23 1.0 2.7 -0.4 -3.8 87.8- 4.7 2.0---- 0.0------------
1974-01-24 3.9 6.7 -0.4 -2.2 85.0- 7.3 6.0---- 4.1------------
1974-01-25 4.4 6.5 3.6 1.7 84.8- 7.3 4.0---- 0.3------------
1974-01-26 4.0 7.7 2.1 -2.0 83.5- 4.7 1.0---- 0.0------------
1974-01-27 2.3 4.7 -1.1 -5.3 79.5- 1.7 6.3---- 0.8------------
1974-01-28 3.3 6.6 1.4 -3.0 85.8- 5.3 3.0---- 0.0------------
1974-01-29 3.6 7.0 1.0 -2.1 77.5- 4.0 7.0---- 1.0------------
1974-01-30 4.1 6.7 2.2 2.7 84.8- 5.0 2.0---- 0.2------------
1974-01-31 2.9 6.5 -0.5 -3.6 83.8- 3.3 7.3---- 0.0------------
1974-02-01 3.1 8.6 1.2 -2.4 82.0- 2.0 2.7---- 0.0------------
1974-02-02 3.1 7.6 0.5 -2.9 81.8- 0.7 3.7---- 0.0------------
1974-02-03 3.0 7.5 -0.1 -4.1 85.8- 5.7 1.7---- 0.0------------
1974-02-04 1.9 3.6 0.6 0.0 95.8- 8.0 1.7---- 17.4------------
1974-02-05 1.1 1.9 0.6 0.2 97.5- 8.0 2.0---- 1.4------------
1974-02-06 3.2 6.7 -0.7 -2.6 82.3- 6.0 6.3---- 0.1------------
1974-02-07 2.4 6.1 1.2 0.3 75.5- 6.3 8.3---- 0.3------------
1974-02-08 1.3 4.2 0.1 -1.0 80.0- 7.3 11.3---- 1.6------------
1974-02-09 4.5 8.4 1.3 -1.2 82.3- 8.0 12.7---- 0.7------------
1974-02-10 7.7 11.1 6.0 3.3 69.0- 3.3 8.0---- 0.0------------
1974-02-11 7.6 14.1 3.4 -1.6 69.3- 2.7 3.0---- 0.0------------
1974-02-12 9.9 17.6 5.9 1.1 63.8- 0.3 4.3---- 0.0------------
238.0 ms

 

Źródłem pochodzenia danych jest Instytut Meteorologii i Gospodarki Wodnej – Państwowy Instytut Badawczy. Dane Instytutu Meteorologii i Gospodarki Wodnej – Państwowego Instytutu Badawczego zostały przetworzone.

Dane źródłowe można odnaleźć na stronie https://dane.imgw.pl